Air Navigation Services of Czech Republic
Airport: LKKV Updated:  21.11.2019 19:00:26  UTC
 METAR LKKV 21.11. 19:00 ...
METAR LKKV 211900Z 27004KT 240V300 4000 -RA BR OVC002 06/06 Q1008 RMK REG QNH 1006=
 TAF LKKV 21.11. 17:00 ...
TAF LKKV 211700Z 2118/2300 VRB02KT 5000 BR SCT005 BKN016      TEMPO 2118/2208 1200 BR BKN003 OVC010      BECMG 2208/2210 13004KT 5000 BR SCT010      TEMPO 2215/2300 2000 BR BKN005=